createdAt,value
2022-10-23T00:01:43.794Z,2.40
2022-10-23T00:04:15.087Z,2.03
2022-10-23T00:06:43.462Z,3.00
2022-10-23T00:09:13.319Z,3.10
2022-10-23T00:11:41.680Z,2.80
2022-10-23T00:14:09.334Z,2.47
2022-10-23T00:16:37.165Z,2.60
2022-10-23T00:19:04.959Z,1.98
2022-10-23T00:21:32.503Z,2.72
2022-10-23T00:24:00.337Z,2.00
2022-10-23T00:26:27.835Z,2.25
2022-10-23T00:28:56.211Z,2.92
2022-10-23T00:31:25.064Z,2.55
2022-10-23T00:33:53.345Z,3.10
2022-10-23T00:36:21.623Z,2.93
2022-10-23T00:38:51.292Z,3.30
2022-10-23T00:41:25.365Z,2.95
2022-10-23T00:44:06.367Z,4.05
2022-10-23T00:46:34.966Z,3.17
2022-10-23T00:49:04.576Z,3.13
2022-10-23T00:51:38.631Z,3.50
2022-10-23T00:54:24.446Z,2.92
2022-10-23T00:56:59.441Z,3.03
2022-10-23T00:59:27.836Z,2.25
2022-10-23T01:01:55.484Z,2.70
2022-10-23T01:04:23.988Z,2.58
2022-10-23T01:06:57.654Z,2.55
2022-10-23T01:09:46.485Z,2.75
2022-10-23T01:12:34.541Z,2.95
2022-10-23T01:15:21.884Z,3.10
2022-10-23T01:18:02.380Z,3.58
2022-10-23T01:20:46.774Z,4.05
2022-10-23T01:23:38.727Z,4.45
2022-10-23T01:26:29.917Z,4.82
2022-10-23T01:29:15.126Z,3.60
2022-10-23T01:31:55.573Z,4.32
2022-10-23T01:34:30.821Z,3.65
2022-10-23T01:37:01.478Z,3.60
2022-10-23T01:39:37.032Z,3.80
2022-10-23T01:42:11.909Z,3.40
2022-10-23T01:44:44.912Z,3.10
2022-10-23T01:47:16.131Z,3.92
2022-10-23T01:49:47.674Z,2.95
2022-10-23T01:52:16.600Z,2.87
2022-10-23T01:54:46.465Z,3.00
2022-10-23T01:57:18.051Z,3.87
2022-10-23T01:59:51.836Z,4.20
2022-10-23T02:02:22.789Z,3.95
2022-10-23T02:04:59.487Z,4.22
2022-10-23T02:07:27.156Z,4.60
2022-10-23T02:09:54.982Z,4.28
2022-10-23T02:12:56.111Z,4.35
2022-10-23T02:15:41.475Z,4.05
2022-10-23T02:18:44.664Z,4.20
2022-10-23T02:21:17.643Z,4.43
2022-10-23T02:24:07.976Z,3.95
2022-10-23T02:26:49.150Z,4.40
2022-10-23T02:29:33.677Z,4.28
2022-10-23T02:32:02.252Z,4.12
2022-10-23T02:34:29.980Z,4.23
2022-10-23T02:36:57.733Z,3.75
2022-10-23T02:39:27.922Z,4.37
2022-10-23T02:42:28.154Z,4.32
2022-10-23T02:45:29.863Z,4.57
2022-10-23T02:48:19.193Z,4.83
2022-10-23T02:51:00.351Z,5.25
2022-10-23T02:53:33.483Z,3.90
2022-10-23T02:56:03.702Z,4.37
2022-10-23T02:58:34.084Z,3.70
2022-10-23T03:01:24.881Z,3.20
2022-10-23T03:03:56.773Z,4.15
2022-10-23T03:06:25.306Z,3.97
2022-10-23T03:08:57.809Z,3.62
2022-10-23T03:11:25.829Z,4.05
2022-10-23T03:13:53.522Z,5.20
2022-10-23T03:16:20.980Z,5.40
2022-10-23T03:18:50.410Z,5.70
2022-10-23T03:21:18.236Z,4.47
2022-10-23T03:23:45.671Z,5.80
2022-10-23T03:26:15.015Z,5.57
2022-10-23T03:28:42.891Z,5.82
2022-10-23T03:31:10.383Z,5.90
2022-10-23T03:33:38.933Z,5.05
2022-10-23T03:36:07.365Z,5.37
2022-10-23T03:38:35.236Z,4.93
2022-10-23T03:41:03.014Z,4.60
2022-10-23T03:43:30.708Z,4.95
2022-10-23T03:45:58.101Z,4.78
2022-10-23T03:48:25.968Z,5.12
2022-10-23T03:50:57.814Z,4.90
2022-10-23T03:53:25.318Z,4.03
2022-10-23T03:55:53.431Z,4.20
2022-10-23T03:58:21.106Z,5.32
2022-10-23T04:00:49.416Z,6.00
2022-10-23T04:03:17.095Z,4.73
2022-10-23T04:05:44.484Z,4.75
2022-10-23T04:08:14.189Z,5.95
2022-10-23T04:10:45.256Z,4.87
2022-10-23T04:13:12.859Z,4.37
2022-10-23T04:15:40.354Z,3.67
2022-10-23T04:18:08.087Z,3.12
2022-10-23T04:20:36.067Z,3.15
2022-10-23T04:23:03.528Z,2.72
2022-10-23T04:25:34.403Z,3.10
2022-10-23T04:28:01.880Z,4.60
2022-10-23T04:30:32.849Z,2.83
2022-10-23T04:33:00.707Z,3.22
2022-10-23T04:35:29.519Z,3.20
2022-10-23T04:37:57.303Z,3.15
2022-10-23T04:40:24.711Z,3.00
2022-10-23T04:42:52.984Z,3.40
2022-10-23T04:45:21.051Z,4.32
2022-10-23T04:47:48.451Z,3.28
2022-10-23T04:50:16.205Z,3.08
2022-10-23T04:53:04.298Z,2.40
2022-10-23T04:55:32.236Z,2.92
2022-10-23T04:58:04.262Z,3.58
2022-10-23T05:00:32.614Z,3.40
2022-10-23T05:03:00.078Z,4.75
2022-10-23T05:05:30.994Z,6.17
2022-10-23T05:07:59.412Z,4.30
2022-10-23T05:10:27.135Z,3.90
2022-10-23T05:12:55.143Z,4.80
2022-10-23T05:15:22.612Z,4.60
2022-10-23T05:17:53.584Z,4.43
2022-10-23T05:20:25.230Z,3.90
2022-10-23T05:22:55.575Z,4.18
2022-10-23T05:25:24.749Z,4.53
2022-10-23T05:27:52.827Z,4.77
2022-10-23T05:30:20.285Z,5.40
2022-10-23T05:32:48.553Z,4.18
2022-10-23T05:35:21.714Z,2.97
2022-10-23T05:37:51.892Z,3.75
2022-10-23T05:40:19.797Z,3.97
2022-10-23T05:42:48.165Z,3.58
2022-10-23T05:45:17.522Z,3.87
2022-10-23T05:47:46.390Z,2.92
2022-10-23T05:50:15.962Z,3.80
2022-10-23T05:52:49.091Z,3.70
2022-10-23T05:55:17.630Z,3.50
2022-10-23T05:57:46.518Z,5.60
2022-10-23T06:00:14.937Z,4.72
2022-10-23T06:02:42.370Z,3.58
2022-10-23T06:05:11.213Z,3.80
2022-10-23T06:07:39.670Z,3.70
2022-10-23T06:10:07.477Z,5.12
2022-10-23T06:12:35.821Z,5.07
2022-10-23T06:15:04.072Z,4.80
2022-10-23T06:17:33.011Z,5.23
2022-10-23T06:20:03.527Z,5.95
2022-10-23T06:22:33.630Z,5.22
2022-10-23T06:25:02.679Z,5.72
2022-10-23T06:27:30.457Z,5.72
2022-10-23T06:29:57.907Z,7.03
2022-10-23T06:32:25.635Z,3.30
2022-10-23T06:34:54.842Z,8.27
2022-10-23T06:37:22.236Z,4.65
2022-10-23T06:39:50.169Z,4.30
2022-10-23T06:42:17.761Z,3.50
2022-10-23T06:44:48.457Z,4.15
2022-10-23T06:47:18.270Z,5.03
2022-10-23T06:49:47.215Z,4.65
2022-10-23T06:52:34.940Z,4.37
2022-10-23T06:55:04.434Z,3.30
2022-10-23T06:57:32.232Z,2.90
2022-10-23T06:59:59.633Z,4.30
2022-10-23T07:02:27.523Z,3.30
2022-10-23T07:04:55.229Z,2.80
2022-10-23T07:07:22.827Z,4.00
2022-10-23T07:09:50.598Z,4.20
2022-10-23T07:12:20.332Z,2.58
2022-10-23T07:14:48.860Z,2.85
2022-10-23T07:17:16.750Z,2.80
2022-10-23T07:19:48.295Z,2.90
2022-10-23T07:22:16.287Z,3.20
2022-10-23T07:24:44.376Z,4.60
2022-10-23T07:27:12.092Z,4.20
2022-10-23T07:29:39.853Z,4.82
2022-10-23T07:32:07.336Z,3.37
2022-10-23T07:34:37.264Z,3.80
2022-10-23T07:37:06.006Z,3.67
2022-10-23T07:39:33.442Z,3.35
2022-10-23T07:42:01.007Z,2.28
2022-10-23T07:44:28.818Z,3.23
2022-10-23T07:46:56.392Z,2.67
2022-10-23T07:49:23.807Z,2.33
2022-10-23T07:51:53.976Z,2.42
2022-10-23T07:54:21.454Z,2.87
2022-10-23T07:56:50.419Z,2.43
2022-10-23T07:59:19.466Z,2.62
2022-10-23T08:01:50.536Z,3.00
2022-10-23T08:04:20.992Z,4.03
2022-10-23T08:06:49.138Z,3.55
2022-10-23T08:09:16.823Z,4.03
2022-10-23T08:11:44.608Z,3.47
2022-10-23T08:14:14.322Z,3.92
2022-10-23T08:16:42.680Z,3.90
2022-10-23T08:19:12.180Z,2.30
2022-10-23T08:21:40.470Z,2.97
2022-10-23T08:24:13.299Z,4.15
2022-10-23T08:26:41.399Z,4.20
2022-10-23T08:29:09.747Z,3.70
2022-10-23T08:31:37.394Z,3.95
2022-10-23T08:34:07.108Z,2.80
2022-10-23T08:36:36.461Z,3.30
2022-10-23T08:39:04.375Z,3.17
2022-10-23T08:41:37.638Z,2.60
2022-10-23T08:44:20.387Z,2.62
2022-10-23T08:46:56.275Z,2.13
2022-10-23T08:49:49.793Z,2.00
2022-10-23T08:52:25.014Z,2.40
2022-10-23T08:55:22.800Z,2.55
2022-10-23T08:58:06.546Z,2.08
2022-10-23T09:00:34.622Z,2.20
2022-10-23T09:03:05.381Z,2.47
2022-10-23T09:05:37.118Z,2.12
2022-10-23T09:08:42.267Z,2.25
2022-10-23T09:11:30.716Z,2.22
2022-10-23T09:14:16.922Z,2.67
2022-10-23T09:16:50.174Z,2.72
2022-10-23T09:19:26.415Z,2.03
2022-10-23T09:21:55.690Z,2.10
2022-10-23T09:24:26.178Z,2.65
2022-10-23T09:26:54.369Z,2.77
2022-10-23T09:29:28.651Z,3.03
2022-10-23T09:31:58.538Z,3.78
2022-10-23T09:34:29.168Z,3.55
2022-10-23T09:37:03.859Z,3.78
2022-10-23T09:39:34.155Z,3.70
2022-10-23T09:42:13.946Z,3.83
2022-10-23T09:44:48.841Z,3.47
2022-10-23T09:47:20.756Z,10.32
2022-10-23T09:49:58.831Z,11.75
2022-10-23T09:52:35.924Z,8.00
2022-10-23T09:55:18.988Z,5.85
2022-10-23T09:57:47.611Z,3.28
2022-10-23T10:00:18.531Z,3.28
2022-10-23T10:02:55.587Z,2.92
2022-10-23T10:05:25.288Z,2.93
2022-10-23T10:08:15.095Z,2.90
2022-10-23T10:10:50.325Z,2.05
2022-10-23T10:13:37.784Z,2.33
2022-10-23T10:16:20.131Z,3.03
2022-10-23T10:18:56.386Z,3.00
2022-10-23T10:21:42.475Z,3.28
2022-10-23T10:24:24.140Z,2.72
2022-10-23T10:26:57.263Z,3.28
2022-10-23T10:29:43.521Z,3.25
2022-10-23T10:33:06.672Z,2.80
2022-10-23T10:35:37.592Z,3.05
2022-10-23T10:38:32.244Z,4.70
2022-10-23T10:41:14.361Z,2.83
2022-10-23T10:44:09.623Z,3.50
2022-10-23T10:46:51.175Z,3.40
2022-10-23T10:49:43.231Z,2.80
2022-10-23T10:52:33.716Z,3.08
2022-10-23T10:55:16.442Z,2.70
2022-10-23T10:57:50.383Z,2.92
2022-10-23T11:00:21.324Z,3.13
2022-10-23T11:02:54.138Z,2.53
2022-10-23T11:05:38.921Z,3.40
2022-10-23T11:08:18.189Z,3.28
2022-10-23T11:10:49.525Z,2.67
2022-10-23T11:13:35.308Z,3.30
2022-10-23T11:16:30.168Z,3.83
2022-10-23T11:19:35.611Z,3.95
2022-10-23T11:22:24.619Z,4.22
2022-10-23T11:25:29.879Z,4.40
2022-10-23T11:28:20.161Z,3.60
2022-10-23T11:31:10.938Z,3.55
2022-10-23T11:34:08.891Z,3.72
2022-10-23T11:36:42.972Z,3.40
2022-10-23T11:39:23.636Z,3.35
2022-10-23T11:41:56.463Z,3.13
2022-10-23T11:44:26.618Z,3.10
2022-10-23T11:47:39.549Z,3.35
2022-10-23T11:50:28.152Z,3.70
2022-10-23T11:53:13.760Z,3.92
2022-10-23T11:56:06.769Z,3.23
2022-10-23T12:01:44.326Z,3.20
2022-10-23T12:04:15.091Z,3.20
2022-10-23T12:06:47.621Z,3.00
2022-10-23T12:09:36.222Z,3.27
2022-10-23T12:12:09.540Z,3.00
2022-10-23T12:14:38.995Z,3.45
2022-10-23T12:17:24.984Z,3.00
2022-10-23T12:19:55.878Z,3.05
2022-10-23T12:22:30.863Z,3.10
2022-10-23T12:25:17.318Z,3.17
2022-10-23T12:27:57.246Z,3.78
2022-10-23T12:31:02.935Z,3.12
2022-10-23T12:33:56.199Z,3.15
2022-10-23T12:36:36.222Z,3.13
2022-10-23T12:39:03.694Z,3.33
2022-10-23T12:41:34.801Z,3.22
2022-10-23T12:44:04.939Z,3.28
2022-10-23T12:46:41.700Z,3.10
2022-10-23T12:49:15.661Z,3.10
2022-10-23T12:51:43.806Z,3.12
2022-10-23T12:54:21.639Z,3.50
2022-10-23T12:56:49.850Z,2.90
2022-10-23T12:59:23.342Z,3.87
2022-10-23T13:01:53.025Z,3.80
2022-10-23T13:04:31.272Z,2.95
2022-10-23T13:07:02.148Z,3.55
2022-10-23T13:09:42.264Z,3.87
2022-10-23T13:12:22.509Z,4.40
2022-10-23T13:15:06.945Z,3.80
2022-10-23T13:17:39.126Z,4.10
2022-10-23T13:20:18.789Z,4.28
2022-10-23T13:22:59.431Z,4.43
2022-10-23T13:25:33.480Z,4.32
2022-10-23T13:28:23.030Z,3.90
2022-10-23T13:31:22.528Z,4.00
2022-10-23T13:34:23.578Z,3.95
2022-10-23T13:37:01.187Z,4.30
2022-10-23T13:39:33.623Z,4.80
2022-10-23T13:42:11.841Z,4.90
2022-10-23T13:44:40.742Z,4.80
2022-10-23T13:47:16.028Z,4.70
2022-10-23T13:49:43.755Z,4.75
2022-10-23T13:52:23.547Z,5.28
2022-10-23T13:54:51.284Z,5.50
2022-10-23T13:57:18.709Z,5.70
2022-10-23T13:59:46.096Z,5.22
2022-10-23T14:02:24.357Z,5.50
2022-10-23T14:04:52.213Z,5.68
2022-10-23T14:07:19.661Z,5.40
2022-10-23T14:09:47.474Z,5.93
2022-10-23T14:12:16.871Z,5.50
2022-10-23T14:14:44.304Z,5.82
2022-10-23T14:17:11.785Z,6.97
2022-10-23T14:19:39.513Z,6.53
2022-10-23T14:22:07.080Z,6.00
2022-10-23T14:24:35.140Z,6.47
2022-10-23T14:27:03.383Z,5.90
2022-10-23T14:29:31.483Z,6.25
2022-10-23T14:31:59.143Z,6.20
2022-10-23T14:34:26.877Z,6.55
2022-10-23T14:37:07.983Z,5.95
2022-10-23T14:39:36.717Z,5.72
2022-10-23T14:42:04.325Z,5.57
2022-10-23T14:44:31.806Z,6.40
2022-10-23T14:47:00.143Z,6.93
2022-10-23T14:49:27.561Z,7.07
2022-10-23T14:51:54.973Z,7.50
2022-10-23T14:54:22.718Z,7.32
2022-10-23T14:56:50.074Z,6.90
2022-10-23T14:59:17.505Z,7.22
2022-10-23T15:01:48.218Z,7.05
2022-10-23T15:04:16.545Z,6.90
2022-10-23T15:06:45.120Z,7.30
2022-10-23T15:09:13.694Z,7.27
2022-10-23T15:11:41.434Z,7.90
2022-10-23T15:14:09.032Z,7.32
2022-10-23T15:16:41.469Z,7.30
2022-10-23T15:19:18.106Z,7.43
2022-10-23T15:21:47.990Z,7.93
2022-10-23T15:24:16.858Z,7.55
2022-10-23T15:26:45.540Z,6.90
2022-10-23T15:29:14.875Z,7.60
2022-10-23T15:31:45.353Z,8.25
2022-10-23T15:34:19.546Z,8.00
2022-10-23T15:36:47.938Z,7.93
2022-10-23T15:39:18.532Z,8.13
2022-10-23T15:41:46.135Z,8.43
2022-10-23T15:44:17.331Z,7.30
2022-10-23T15:46:45.198Z,7.50
2022-10-23T15:49:13.195Z,7.70
2022-10-23T15:51:42.062Z,8.10
2022-10-23T15:54:16.613Z,7.50
2022-10-23T15:56:48.021Z,8.00
2022-10-23T15:59:17.059Z,7.90
2022-10-23T16:01:44.638Z,7.93
2022-10-23T16:04:13.080Z,7.85
2022-10-23T16:06:40.608Z,7.68
2022-10-23T16:09:08.265Z,7.28
2022-10-23T16:11:37.724Z,8.10
2022-10-23T16:14:06.125Z,7.07
2022-10-23T16:16:34.225Z,7.40
2022-10-23T16:19:03.788Z,7.85
2022-10-23T16:21:36.243Z,8.00
2022-10-23T16:24:07.769Z,8.53
2022-10-23T16:26:36.127Z,7.45
2022-10-23T16:29:06.384Z,8.18
2022-10-23T16:31:34.462Z,8.23
2022-10-23T16:34:05.144Z,7.78
2022-10-23T16:36:39.412Z,8.50
2022-10-23T16:39:10.202Z,7.65
2022-10-23T16:41:51.174Z,7.55
2022-10-23T16:44:18.661Z,7.05
2022-10-23T16:46:47.982Z,8.10
2022-10-23T16:49:15.456Z,7.10
2022-10-23T16:51:42.865Z,7.93
2022-10-23T16:54:10.746Z,8.32
2022-10-23T16:56:38.308Z,7.47
2022-10-23T16:59:05.763Z,6.68
2022-10-23T17:01:34.078Z,7.87
2022-10-23T17:04:01.671Z,8.68
2022-10-23T17:06:32.529Z,8.02
2022-10-23T17:09:01.377Z,7.75
2022-10-23T17:11:33.871Z,8.43
2022-10-23T17:14:04.595Z,7.70
2022-10-23T17:16:44.602Z,9.48
2022-10-23T17:19:20.711Z,9.65
2022-10-23T17:21:48.479Z,9.63
2022-10-23T17:24:16.634Z,9.70
2022-10-23T17:26:44.046Z,9.00
2022-10-23T17:29:15.092Z,10.02
2022-10-23T17:31:45.667Z,11.60
2022-10-23T17:34:18.307Z,10.55
2022-10-23T17:36:49.411Z,10.73
2022-10-23T17:39:20.806Z,11.13
2022-10-23T17:41:48.659Z,10.95
2022-10-23T17:44:17.755Z,10.02
2022-10-23T17:46:53.013Z,11.57
2022-10-23T17:49:21.456Z,10.32
2022-10-23T17:51:52.568Z,10.77
2022-10-23T17:54:20.596Z,10.32
2022-10-23T17:56:48.367Z,11.45
2022-10-23T17:59:18.868Z,10.98
2022-10-23T18:01:48.228Z,9.65
2022-10-23T18:04:19.453Z,10.10
2022-10-23T18:06:49.962Z,10.85
2022-10-23T18:09:18.704Z,9.88
2022-10-23T18:11:48.217Z,9.55
2022-10-23T18:14:18.551Z,11.02
2022-10-23T18:16:46.799Z,10.03
2022-10-23T18:19:17.224Z,10.18
2022-10-23T18:21:45.026Z,10.88
2022-10-23T18:24:12.797Z,9.82
2022-10-23T18:26:41.729Z,9.43
2022-10-23T18:29:10.772Z,8.77
2022-10-23T18:31:38.888Z,10.10
2022-10-23T18:34:08.884Z,11.10
2022-10-23T18:36:39.312Z,10.10
2022-10-23T18:39:09.560Z,9.50
2022-10-23T18:41:40.056Z,11.60
2022-10-23T18:44:08.473Z,10.15
2022-10-23T18:46:37.277Z,9.63
2022-10-23T18:49:04.896Z,10.05
2022-10-23T18:51:34.999Z,10.00
2022-10-23T18:54:14.058Z,9.17
2022-10-23T18:56:42.257Z,9.15
2022-10-23T18:59:15.633Z,10.10
2022-10-23T19:01:44.254Z,9.07
2022-10-23T19:04:14.120Z,9.02
2022-10-23T19:06:41.650Z,8.90
2022-10-23T19:09:10.462Z,9.52
2022-10-23T19:11:38.255Z,10.25
2022-10-23T19:14:05.773Z,10.85
2022-10-23T19:16:38.519Z,9.40
2022-10-23T19:19:17.810Z,8.80
2022-10-23T19:21:46.342Z,9.60
2022-10-23T19:24:18.333Z,9.27
2022-10-23T19:26:46.856Z,9.05
2022-10-23T19:29:20.071Z,9.63
2022-10-23T19:31:49.336Z,11.10
2022-10-23T19:34:19.995Z,11.70
2022-10-23T19:36:48.959Z,9.32
2022-10-23T19:39:16.968Z,9.32
2022-10-23T19:41:44.768Z,8.95
2022-10-23T19:44:14.730Z,9.70
2022-10-23T19:46:42.287Z,8.23
2022-10-23T19:49:10.264Z,11.18
2022-10-23T19:51:38.495Z,12.45
2022-10-23T19:54:06.806Z,12.07
2022-10-23T19:56:35.804Z,10.23
2022-10-23T19:59:03.707Z,10.65
2022-10-23T20:01:31.292Z,10.95
2022-10-23T20:03:59.186Z,9.27
2022-10-23T20:06:29.864Z,10.10
2022-10-23T20:08:57.436Z,9.80
2022-10-23T20:11:30.736Z,9.88
2022-10-23T20:13:58.456Z,11.60
2022-10-23T20:16:31.686Z,13.38
2022-10-23T20:19:02.721Z,11.15
2022-10-23T20:21:30.481Z,14.80
2022-10-23T20:23:59.219Z,13.68
2022-10-23T20:26:26.939Z,14.07
2022-10-23T20:28:55.997Z,11.45
2022-10-23T20:31:25.583Z,10.93
2022-10-23T20:33:53.646Z,10.00
2022-10-23T20:36:36.619Z,11.02
2022-10-23T20:39:09.916Z,10.07
2022-10-23T20:41:38.502Z,9.63
2022-10-23T20:44:09.518Z,10.07
2022-10-23T20:46:37.169Z,10.23
2022-10-23T20:49:04.928Z,10.18
2022-10-23T20:51:32.755Z,10.95
2022-10-23T20:54:00.242Z,10.18
2022-10-23T20:56:31.188Z,11.05
2022-10-23T20:59:07.458Z,10.37
2022-10-23T21:01:35.839Z,10.02
2022-10-23T21:04:03.651Z,9.80
2022-10-23T21:06:45.618Z,9.52
2022-10-23T21:09:21.835Z,9.35
2022-10-23T21:11:49.874Z,10.27
2022-10-23T21:14:17.262Z,8.88
2022-10-23T21:16:46.567Z,9.90
2022-10-23T21:19:15.848Z,9.68
2022-10-23T21:21:43.987Z,9.85
2022-10-23T21:24:16.127Z,9.60
2022-10-23T21:26:44.055Z,9.77
2022-10-23T21:29:18.976Z,8.57
2022-10-23T21:31:56.022Z,9.15
2022-10-23T21:34:25.356Z,8.65
2022-10-23T21:39:44.713Z,9.25
2022-10-23T21:42:13.796Z,10.15
2022-10-23T21:44:41.498Z,8.95
2022-10-23T21:47:09.215Z,9.88
2022-10-23T21:49:36.919Z,9.47
2022-10-23T21:52:04.991Z,9.73
2022-10-23T21:54:32.553Z,8.93
2022-10-23T21:56:59.986Z,9.10
2022-10-23T21:59:30.190Z,9.15
2022-10-23T22:01:59.582Z,9.87
2022-10-23T22:04:27.479Z,9.30
2022-10-23T22:06:55.034Z,8.90
2022-10-23T22:09:22.807Z,9.13
2022-10-23T22:11:52.166Z,9.38
2022-10-23T22:14:20.003Z,9.67
2022-10-23T22:16:48.062Z,9.77
2022-10-23T22:19:17.595Z,9.85
2022-10-23T22:21:45.740Z,10.43
2022-10-23T22:24:13.483Z,9.45
2022-10-23T22:26:47.511Z,9.67
2022-10-23T22:29:18.409Z,9.65
2022-10-23T22:31:48.882Z,8.57
2022-10-23T22:34:52.397Z,10.55
2022-10-23T22:37:21.028Z,9.32
2022-10-23T22:39:52.359Z,9.77
2022-10-23T22:42:20.607Z,8.98
2022-10-23T22:44:48.295Z,10.73
2022-10-23T22:47:15.666Z,10.15
2022-10-23T22:49:43.058Z,10.27
2022-10-23T22:52:10.728Z,10.70
2022-10-23T22:54:38.115Z,9.00
2022-10-23T22:57:05.563Z,9.80
2022-10-23T22:59:33.263Z,9.43
2022-10-23T23:02:00.763Z,9.98
2022-10-23T23:04:43.542Z,10.50
2022-10-23T23:07:12.723Z,10.30
2022-10-23T23:09:42.890Z,10.43
2022-10-23T23:12:13.470Z,10.00
2022-10-23T23:14:41.460Z,10.50
2022-10-23T23:17:09.836Z,10.20
2022-10-23T23:19:37.607Z,10.38
2022-10-23T23:22:05.350Z,8.93
2022-10-23T23:24:33.131Z,10.02
2022-10-23T23:27:00.839Z,8.57
2022-10-23T23:29:29.584Z,9.30
2022-10-23T23:31:57.335Z,9.02
2022-10-23T23:34:25.037Z,8.18
2022-10-23T23:36:52.461Z,8.80
2022-10-23T23:39:19.866Z,7.90
2022-10-23T23:41:47.548Z,7.47
2022-10-23T23:44:14.982Z,8.75
2022-10-23T23:46:42.383Z,9.25
2022-10-23T23:49:10.085Z,8.55
2022-10-23T23:51:37.568Z,9.10
2022-10-23T23:54:05.005Z,9.03
2022-10-23T23:56:32.722Z,8.27
2022-10-23T23:59:00.111Z,8.98
